Impacts TAF Board
For situational awareness. Not to be used for flight planning purposes.
IDs:

KHBG - Hattiesburg/Chain Mu, MS, US

Issued at 1308 UTC 15 Oct 2018
Updated at 1519 UTC 15 Oct 2018
Potential Impact None Slight Moderate High
Time1453Z 15/16Z 15/17Z 15/18Z 15/19Z 15/20Z 15/21Z 15/22Z 15/23Z 16/00Z 16/01Z 16/02Z 16/03Z 16/04Z>>
Type OBS PRVL PRVL PRVL PRVL PRVL PRVL PRVL PRVL PRVL PRVL PRVL PRVL PRVL
VIS 10 >6 >6 >6 >6 >6 >6 >6 >6 >6 >6 >6 >6 >6
CIG -- 15 15 250 250 250 250 35 35 50 50 50 50 50
Cover CLR BKN BKN BKN BKN BKN BKN BKN BKN BKN BKN BKN BKN BKN
FltCat VFR MVFR MVFR VFR VFR VFR VFR VFR VFR VFR VFR VFR VFR VFR
WX -- VCSH VCSH VCTS VCTS VCTS VCTS VCTS VCTS VCSH VCSH VCSH VCSH VCSH
WDir VRB 180 180 180 180 180 180 40 40 20 20 20 20 20
WSpd 0 3 3 4 4 4 4 3 3 3 3 3 3 3
WGst -- -- -- -- -- -- -- -- -- -- -- -- -- --
Raw TAF
KHBG 151308Z 1513/1612 00000KT 1/4SM FG BKN002
  FM151400 18003KT P6SM VCSH BKN015
  FM151800 18004KT P6SM VCTS SCT025CB BKN250
  FM152200 04003KT P6SM VCTS BKN035CB
  FM160000 02003KT P6SM VCSH BKN050


Raw METAR
KHBG 151453Z AUTO 00000KT 10SM CLR 26/21 A3009 RMK AO2 SLP185 T02560211 51012
KHBG 151409Z AUTO 00000KT 10SM SCT002 21/19 A3008 RMK AO2 T02060194
KHBG 151353Z AUTO 00000KT 8SM OVC002 20/19 A3008 RMK AO2 SLP181 T02000194
KHBG 151337Z AUTO 00000KT 3SM BR OVC002 19/19 A3008 RMK AO2 T01940189
KHBG 151330Z AUTO 14003KT 1SM BR VV002 19/19 A3008 RMK AO2 T01940189
KHBG 151253Z AUTO 00000KT M1/4SM FG VV002 19/18 A3006 RMK AO2 SLP177 T01890183
KHBG 151241Z AUTO 00000KT 1/4SM FG VV002 18/18 A3006 RMK AO2 T01830178
KHBG 151234Z AUTO 00000KT 1 1/2SM BR OVC002 18/18 A3006 RMK AO2 T01830178

METAR Board
Radar Display
Forecast Discussion
For situational awareness. Not to be used for flight planning purposes.